createdAt,value
2022-11-16T00:00:05.786Z,95.50
2022-11-16T00:02:35.988Z,95.50
2022-11-16T00:05:04.321Z,95.50
2022-11-16T00:07:32.428Z,95.50
2022-11-16T00:10:00.576Z,95.50
2022-11-16T00:12:28.806Z,95.50
2022-11-16T00:14:56.853Z,95.50
2022-11-16T00:17:24.857Z,95.50
2022-11-16T00:19:54.246Z,95.50
2022-11-16T00:22:22.336Z,95.50
2022-11-16T00:24:50.371Z,95.50
2022-11-16T00:27:18.405Z,95.50
2022-11-16T00:29:46.547Z,95.50
2022-11-16T00:32:14.669Z,95.50
2022-11-16T00:34:42.689Z,95.50
2022-11-16T00:37:12.045Z,95.50
2022-11-16T00:39:40.180Z,95.50
2022-11-16T00:42:08.259Z,95.50
2022-11-16T00:44:36.308Z,95.50
2022-11-16T00:47:04.329Z,95.50
2022-11-16T00:49:32.406Z,95.50
2022-11-16T00:52:00.397Z,95.50
2022-11-16T00:54:29.775Z,95.50
2022-11-16T00:56:57.748Z,95.50
2022-11-16T00:59:25.768Z,95.50
2022-11-16T01:01:53.780Z,95.50
2022-11-16T01:04:21.941Z,95.50
2022-11-16T01:06:50.004Z,95.50
2022-11-16T01:09:18.019Z,95.50
2022-11-16T01:12:04.878Z,95.50
2022-11-16T01:14:32.866Z,95.50
2022-11-16T01:17:01.002Z,95.50
2022-11-16T01:19:29.035Z,95.50
2022-11-16T01:21:57.569Z,95.50
2022-11-16T01:24:26.175Z,95.50
2022-11-16T01:26:56.888Z,95.50
2022-11-16T01:29:26.243Z,95.50
2022-11-16T01:31:54.222Z,95.50
2022-11-16T01:34:22.986Z,95.50
2022-11-16T01:36:51.001Z,95.50
2022-11-16T01:39:19.501Z,95.50
2022-11-16T01:41:47.574Z,95.50
2022-11-16T01:44:57.770Z,95.50
2022-11-16T01:47:25.815Z,95.50
2022-11-16T01:49:57.563Z,95.50
2022-11-16T01:52:30.024Z,95.50
2022-11-16T01:54:58.630Z,95.50
2022-11-16T01:57:32.591Z,95.50
2022-11-16T02:00:06.554Z,95.50
2022-11-16T02:02:34.758Z,95.50
2022-11-16T02:05:03.999Z,95.50
2022-11-16T02:08:10.047Z,95.50
2022-11-16T02:10:51.381Z,95.50
2022-11-16T02:13:34.209Z,95.50
2022-11-16T02:16:15.785Z,95.50
2022-11-16T02:18:54.465Z,95.50
2022-11-16T02:21:35.270Z,95.50
2022-11-16T02:24:36.180Z,95.50
2022-11-16T02:27:37.689Z,95.50
2022-11-16T02:30:08.092Z,95.50
2022-11-16T02:32:40.466Z,95.50
2022-11-16T02:35:14.570Z,95.50
2022-11-16T02:37:48.188Z,95.50
2022-11-16T02:40:18.775Z,95.50
2022-11-16T02:42:50.977Z,95.50
2022-11-16T02:45:23.449Z,95.50
2022-11-16T02:47:53.870Z,95.50
2022-11-16T02:50:24.227Z,95.50
2022-11-16T02:52:52.317Z,95.50
2022-11-16T02:55:20.428Z,95.50
2022-11-16T02:57:52.401Z,95.50
2022-11-16T03:00:24.925Z,95.50
2022-11-16T03:03:04.329Z,95.50
2022-11-16T03:05:36.410Z,95.50
2022-11-16T03:08:11.387Z,95.50
2022-11-16T03:10:59.647Z,95.50
2022-11-16T03:13:31.407Z,95.50
2022-11-16T03:16:03.755Z,95.50
2022-11-16T03:18:32.007Z,95.50
2022-11-16T03:21:10.895Z,95.50
2022-11-16T03:23:39.111Z,95.50
2022-11-16T03:26:11.507Z,95.50
2022-11-16T03:28:44.381Z,95.50
2022-11-16T03:31:16.589Z,95.50
2022-11-16T03:33:50.095Z,95.50
2022-11-16T03:36:24.774Z,95.50
2022-11-16T03:38:53.899Z,95.50
2022-11-16T03:41:24.073Z,95.50
2022-11-16T03:43:53.736Z,95.50
2022-11-16T03:46:23.146Z,95.50
2022-11-16T03:48:58.029Z,95.50
2022-11-16T03:51:26.616Z,95.50
2022-11-16T03:53:54.797Z,95.50
2022-11-16T03:56:23.018Z,95.50
2022-11-16T03:58:51.092Z,95.50
2022-11-16T04:01:19.330Z,95.50
2022-11-16T04:03:48.760Z,95.50
2022-11-16T04:06:34.729Z,95.50
2022-11-16T04:09:20.229Z,95.50
2022-11-16T04:12:05.991Z,95.50
2022-11-16T04:14:52.075Z,95.50
2022-11-16T04:17:38.111Z,95.50
2022-11-16T04:20:27.585Z,95.50
2022-11-16T04:23:18.801Z,95.50
2022-11-16T04:25:48.683Z,95.50
2022-11-16T04:28:17.517Z,95.50
2022-11-16T04:31:06.343Z,95.50
2022-11-16T04:33:52.438Z,95.50
2022-11-16T04:36:39.372Z,95.50
2022-11-16T04:39:07.632Z,95.50
2022-11-16T04:41:55.248Z,95.50
2022-11-16T04:44:28.767Z,95.50
2022-11-16T04:47:08.742Z,95.50
2022-11-16T04:49:36.757Z,95.50
2022-11-16T04:52:06.229Z,95.50
2022-11-16T04:54:34.261Z,95.50
2022-11-16T04:57:02.272Z,95.50
2022-11-16T04:59:30.272Z,95.50
2022-11-16T05:02:10.190Z,95.50
2022-11-16T05:04:39.518Z,95.50
2022-11-16T05:07:11.944Z,95.50
2022-11-16T05:09:43.000Z,95.50
2022-11-16T05:12:11.816Z,95.50
2022-11-16T05:14:39.789Z,95.50
2022-11-16T05:17:07.823Z,95.50
2022-11-16T05:19:53.280Z,95.50
2022-11-16T05:22:22.645Z,95.50
2022-11-16T05:24:50.705Z,95.50
2022-11-16T05:27:20.100Z,95.50
2022-11-16T05:29:49.539Z,95.50
2022-11-16T05:32:18.430Z,95.50
2022-11-16T05:34:46.816Z,95.50
2022-11-16T05:37:15.251Z,95.50
2022-11-16T05:39:44.728Z,95.50
2022-11-16T05:42:12.825Z,95.50
2022-11-16T05:44:40.865Z,95.50
2022-11-16T05:47:08.934Z,95.50
2022-11-16T05:49:37.026Z,95.50
2022-11-16T05:52:05.127Z,95.50
2022-11-16T05:54:33.142Z,95.50
2022-11-16T05:57:02.477Z,95.50
2022-11-16T05:59:30.505Z,95.50
2022-11-16T06:01:58.525Z,95.50
2022-11-16T06:04:26.737Z,95.50
2022-11-16T06:06:54.802Z,95.50
2022-11-16T06:09:22.892Z,95.50
2022-11-16T06:11:50.962Z,95.50
2022-11-16T06:14:20.362Z,95.50
2022-11-16T06:16:48.366Z,95.50
2022-11-16T06:19:16.386Z,95.50
2022-11-16T06:21:44.474Z,95.50
2022-11-16T06:24:12.456Z,95.50
2022-11-16T06:26:40.517Z,95.50
2022-11-16T06:29:08.563Z,95.50
2022-11-16T06:31:37.989Z,95.50
2022-11-16T06:34:06.070Z,95.50
2022-11-16T06:36:34.127Z,95.50
2022-11-16T06:39:02.099Z,95.50
2022-11-16T06:41:30.261Z,95.50
2022-11-16T06:43:58.265Z,95.50
2022-11-16T06:46:26.595Z,95.50
2022-11-16T06:48:57.515Z,95.50
2022-11-16T06:51:26.061Z,95.50
2022-11-16T06:53:54.110Z,95.50
2022-11-16T06:56:22.196Z,95.50
2022-11-16T06:58:53.324Z,95.50
2022-11-16T07:01:21.998Z,95.50
2022-11-16T07:03:49.996Z,95.50
2022-11-16T07:06:19.590Z,95.50
2022-11-16T07:08:47.534Z,95.50
2022-11-16T07:11:15.734Z,95.50
2022-11-16T07:13:43.735Z,95.50
2022-11-16T07:16:13.048Z,95.50
2022-11-16T07:18:42.328Z,95.50
2022-11-16T07:21:12.215Z,95.50
2022-11-16T07:23:41.994Z,95.50
2022-11-16T07:26:11.159Z,95.50
2022-11-16T07:28:43.411Z,95.50
2022-11-16T07:31:16.288Z,95.50
2022-11-16T07:33:44.379Z,95.50
2022-11-16T07:36:14.762Z,95.50
2022-11-16T07:38:44.312Z,95.50
2022-11-16T07:41:14.898Z,95.50
2022-11-16T07:43:46.104Z,95.50
2022-11-16T07:49:11.128Z,95.50
2022-11-16T07:51:39.645Z,95.50
2022-11-16T07:54:09.237Z,95.50
2022-11-16T07:56:37.269Z,95.50
2022-11-16T07:59:05.983Z,95.50
2022-11-16T08:01:34.518Z,95.50
2022-11-16T08:04:02.814Z,95.50
2022-11-16T08:06:32.415Z,95.50
2022-11-16T08:09:00.824Z,95.50
2022-11-16T08:11:30.279Z,95.50
2022-11-16T08:13:58.357Z,95.50
2022-11-16T08:16:26.407Z,95.50
2022-11-16T08:18:54.411Z,95.50
2022-11-16T08:21:22.444Z,95.50
2022-11-16T08:23:55.188Z,95.50
2022-11-16T08:26:26.126Z,95.50
2022-11-16T08:28:57.182Z,95.50
2022-11-16T08:31:27.762Z,95.50
2022-11-16T08:33:56.611Z,95.50
2022-11-16T08:36:24.924Z,95.50
2022-11-16T08:38:53.664Z,95.50
2022-11-16T08:41:22.637Z,95.50
2022-11-16T08:43:53.256Z,95.50
2022-11-16T08:46:22.928Z,95.50
2022-11-16T08:48:50.932Z,95.50
2022-11-16T08:51:20.376Z,95.50
2022-11-16T08:53:49.703Z,95.50
2022-11-16T08:56:19.171Z,95.50
2022-11-16T08:58:50.285Z,95.50
2022-11-16T09:01:23.717Z,95.50
2022-11-16T09:03:53.459Z,95.50
2022-11-16T09:06:22.661Z,95.50
2022-11-16T09:08:51.074Z,95.50
2022-11-16T09:11:21.725Z,95.50
2022-11-16T09:13:51.463Z,95.50
2022-11-16T09:16:21.066Z,95.50
2022-11-16T09:18:51.788Z,95.50
2022-11-16T09:21:20.610Z,95.50
2022-11-16T09:23:48.704Z,95.50
2022-11-16T09:26:19.083Z,95.50
2022-11-16T09:28:47.114Z,95.50
2022-11-16T09:31:18.985Z,95.50
2022-11-16T09:33:52.511Z,95.50
2022-11-16T09:36:21.408Z,95.50
2022-11-16T09:39:25.796Z,95.50
2022-11-16T09:41:56.813Z,95.50
2022-11-16T09:44:47.594Z,95.50
2022-11-16T09:47:19.543Z,95.50
2022-11-16T09:49:59.723Z,95.50
2022-11-16T09:52:37.915Z,95.50
2022-11-16T09:55:22.289Z,95.50
2022-11-16T09:57:53.527Z,95.50
2022-11-16T10:00:23.709Z,95.50
2022-11-16T10:03:03.538Z,95.50
2022-11-16T10:05:44.480Z,95.50
2022-11-16T10:08:17.370Z,95.50
2022-11-16T10:10:55.827Z,95.50
2022-11-16T10:13:37.710Z,95.50
2022-11-16T10:16:12.807Z,95.50
2022-11-16T10:18:53.288Z,95.50
2022-11-16T10:21:37.278Z,95.50
2022-11-16T10:24:25.485Z,95.50
2022-11-16T10:27:05.852Z,95.50
2022-11-16T10:29:46.863Z,95.50
2022-11-16T10:32:19.829Z,95.50
2022-11-16T10:34:52.727Z,95.50
2022-11-16T10:37:23.353Z,95.50
2022-11-16T10:39:54.153Z,95.50
2022-11-16T10:42:28.824Z,95.50
2022-11-16T10:45:18.187Z,95.50
2022-11-16T10:47:55.805Z,95.50
2022-11-16T10:50:34.033Z,95.50
2022-11-16T10:53:04.549Z,95.50
2022-11-16T10:55:38.179Z,95.50
2022-11-16T10:58:07.668Z,95.50
2022-11-16T11:00:47.802Z,95.50
2022-11-16T11:03:16.349Z,95.50
2022-11-16T11:05:50.801Z,95.50
2022-11-16T11:08:31.348Z,95.50
2022-11-16T11:11:49.495Z,95.50
2022-11-16T11:14:17.767Z,95.50
2022-11-16T11:16:45.786Z,95.50
2022-11-16T11:19:25.096Z,95.50
2022-11-16T11:21:58.345Z,95.50
2022-11-16T11:24:44.026Z,95.50
2022-11-16T11:27:13.790Z,95.50
2022-11-16T11:29:43.785Z,95.50
2022-11-16T11:32:22.443Z,95.50
2022-11-16T11:34:54.407Z,95.50
2022-11-16T11:37:26.279Z,95.50
2022-11-16T11:40:18.109Z,95.50
2022-11-16T11:42:54.538Z,95.50
2022-11-16T11:45:28.943Z,95.50
2022-11-16T11:48:02.059Z,95.50
2022-11-16T11:50:43.836Z,95.50
2022-11-16T11:53:22.623Z,95.50
2022-11-16T11:55:58.269Z,95.50
2022-11-16T11:58:31.085Z,95.50
2022-11-16T12:01:19.552Z,95.50
2022-11-16T12:04:11.167Z,95.50
2022-11-16T12:06:44.701Z,95.00
2022-11-16T12:09:24.937Z,94.20
2022-11-16T12:12:14.365Z,93.50
2022-11-16T12:14:57.203Z,94.00
2022-11-16T12:17:33.897Z,93.20
2022-11-16T12:20:17.097Z,92.20
2022-11-16T12:23:04.184Z,90.60
2022-11-16T12:25:41.391Z,89.50
2022-11-16T12:28:20.129Z,89.60
2022-11-16T12:30:57.387Z,88.70
2022-11-16T12:33:35.348Z,89.10
2022-11-16T12:36:08.332Z,88.20
2022-11-16T12:38:52.912Z,88.20
2022-11-16T12:41:46.901Z,88.20
2022-11-16T12:44:20.929Z,89.40
2022-11-16T12:47:00.082Z,87.80
2022-11-16T12:49:53.341Z,88.00
2022-11-16T12:52:40.500Z,86.40
2022-11-16T12:55:25.902Z,86.90
2022-11-16T12:58:11.336Z,86.40
2022-11-16T13:00:56.846Z,86.60
2022-11-16T13:03:32.724Z,87.10
2022-11-16T13:06:04.730Z,86.20
2022-11-16T13:08:43.072Z,86.70
2022-11-16T13:11:16.605Z,85.40
2022-11-16T13:13:52.637Z,85.60
2022-11-16T13:16:24.141Z,85.70
2022-11-16T13:18:56.185Z,85.80
2022-11-16T13:21:40.875Z,85.90
2022-11-16T13:24:25.627Z,86.00
2022-11-16T13:27:06.126Z,86.60
2022-11-16T13:29:41.794Z,86.90
2022-11-16T13:32:18.424Z,86.50
2022-11-16T13:34:48.004Z,87.00
2022-11-16T13:37:44.922Z,87.90
2022-11-16T13:40:25.307Z,87.40
2022-11-16T13:43:04.220Z,87.80
2022-11-16T13:45:37.148Z,87.90
2022-11-16T13:48:18.361Z,88.20
2022-11-16T13:50:52.225Z,88.60
2022-11-16T13:54:42.785Z,88.00
2022-11-16T13:56:16.032Z,87.30
2022-11-16T13:58:47.568Z,87.10
2022-11-16T14:01:16.363Z,87.80
2022-11-16T14:03:47.311Z,87.20
2022-11-16T14:07:03.109Z,87.10
2022-11-16T14:09:45.017Z,87.10
2022-11-16T14:12:58.509Z,87.20
2022-11-16T14:15:31.832Z,87.00
2022-11-16T14:18:02.952Z,86.70
2022-11-16T14:20:53.752Z,87.50
2022-11-16T14:23:36.164Z,87.90
2022-11-16T14:26:18.913Z,88.80
2022-11-16T14:29:12.177Z,88.90
2022-11-16T14:31:53.299Z,89.40
2022-11-16T14:34:25.044Z,90.10
2022-11-16T14:36:54.924Z,90.50
2022-11-16T14:39:32.017Z,90.60
2022-11-16T14:42:03.788Z,91.20
2022-11-16T14:44:35.623Z,91.40
2022-11-16T14:47:04.871Z,91.70
2022-11-16T14:49:36.894Z,92.10
2022-11-16T14:52:08.287Z,91.80
2022-11-16T14:54:40.712Z,92.20
2022-11-16T14:57:18.032Z,93.20
2022-11-16T14:59:46.011Z,93.40
2022-11-16T15:02:20.272Z,94.30
2022-11-16T15:04:49.732Z,95.10
2022-11-16T15:07:20.074Z,95.00
2022-11-16T15:09:51.383Z,95.10
2022-11-16T15:12:39.335Z,95.50
2022-11-16T15:15:12.987Z,95.50
2022-11-16T15:17:42.507Z,95.50
2022-11-16T15:20:19.600Z,95.50
2022-11-16T15:22:52.940Z,95.50
2022-11-16T15:25:30.757Z,95.50
2022-11-16T15:28:00.549Z,95.50
2022-11-16T15:30:31.127Z,95.50
2022-11-16T15:32:59.108Z,95.50
2022-11-16T15:35:31.081Z,95.50
2022-11-16T15:38:14.806Z,95.50
2022-11-16T15:40:51.353Z,95.50
2022-11-16T15:43:21.212Z,95.50
2022-11-16T15:45:50.232Z,95.50
2022-11-16T15:48:20.719Z,95.50
2022-11-16T15:51:05.672Z,95.50
2022-11-16T15:53:40.708Z,95.50
2022-11-16T15:56:11.829Z,95.50
2022-11-16T15:58:41.816Z,95.50
2022-11-16T16:01:10.687Z,95.50
2022-11-16T16:03:39.446Z,95.50
2022-11-16T16:06:09.427Z,95.50
2022-11-16T16:08:41.684Z,95.50
2022-11-16T16:11:27.299Z,95.50
2022-11-16T16:13:59.962Z,95.50
2022-11-16T16:16:31.484Z,95.50
2022-11-16T16:19:08.162Z,95.50
2022-11-16T16:21:45.735Z,95.50
2022-11-16T16:24:37.531Z,95.50
2022-11-16T16:27:15.031Z,95.50
2022-11-16T16:29:43.203Z,95.50
2022-11-16T16:32:18.076Z,95.50
2022-11-16T16:34:46.097Z,95.50
2022-11-16T16:37:16.632Z,95.50
2022-11-16T16:39:46.153Z,95.50
2022-11-16T16:42:16.360Z,95.50
2022-11-16T16:44:45.777Z,95.50
2022-11-16T16:47:14.341Z,95.50
2022-11-16T16:49:42.469Z,95.50
2022-11-16T16:52:13.467Z,95.50
2022-11-16T16:54:42.184Z,95.50
2022-11-16T16:57:15.773Z,95.50
2022-11-16T16:59:45.087Z,95.50
2022-11-16T17:02:16.136Z,95.50
2022-11-16T17:04:46.421Z,95.50
2022-11-16T17:07:14.491Z,95.50
2022-11-16T17:09:43.266Z,95.50
2022-11-16T17:12:11.813Z,95.50
2022-11-16T17:14:41.295Z,95.50
2022-11-16T17:17:10.140Z,95.50
2022-11-16T17:19:38.209Z,95.50
2022-11-16T17:22:06.243Z,95.50
2022-11-16T17:24:35.704Z,95.50
2022-11-16T17:27:04.535Z,95.50
2022-11-16T17:29:32.592Z,95.50
2022-11-16T17:32:02.154Z,95.50
2022-11-16T17:34:30.174Z,95.50
2022-11-16T17:36:58.367Z,95.50
2022-11-16T17:39:26.537Z,95.50
2022-11-16T17:41:54.690Z,95.50
2022-11-16T17:44:22.751Z,95.50
2022-11-16T17:46:50.914Z,95.50
2022-11-16T17:49:20.345Z,95.50
2022-11-16T17:51:48.604Z,95.50
2022-11-16T17:54:16.587Z,95.50
2022-11-16T17:56:44.735Z,95.50
2022-11-16T17:59:12.721Z,95.50
2022-11-16T18:01:40.829Z,95.50
2022-11-16T18:04:08.866Z,95.50
2022-11-16T18:06:39.406Z,95.50
2022-11-16T18:09:07.507Z,95.50
2022-11-16T18:11:35.890Z,95.50
2022-11-16T18:14:05.509Z,95.50
2022-11-16T18:16:34.589Z,95.50
2022-11-16T18:19:04.716Z,95.50
2022-11-16T18:21:34.136Z,95.50
2022-11-16T18:24:03.616Z,95.50
2022-11-16T18:26:31.753Z,95.50
2022-11-16T18:28:59.754Z,95.50
2022-11-16T18:31:28.081Z,95.50
2022-11-16T18:33:56.784Z,95.50
2022-11-16T18:36:24.851Z,95.50
2022-11-16T18:38:53.033Z,95.50
2022-11-16T18:41:25.460Z,95.50
2022-11-16T18:43:55.405Z,95.50
2022-11-16T18:46:25.502Z,95.50
2022-11-16T18:48:54.027Z,95.50
2022-11-16T18:51:23.061Z,95.50
2022-11-16T18:53:51.529Z,95.50
2022-11-16T18:56:20.609Z,95.50
2022-11-16T18:58:51.971Z,95.50
2022-11-16T19:01:23.140Z,95.50
2022-11-16T19:03:52.280Z,95.50
2022-11-16T19:06:21.344Z,95.50
2022-11-16T19:08:56.225Z,95.50
2022-11-16T19:11:24.961Z,95.50
2022-11-16T19:13:56.865Z,95.50
2022-11-16T19:16:26.102Z,95.50
2022-11-16T19:18:54.371Z,95.50
2022-11-16T19:21:23.482Z,95.50
2022-11-16T19:23:53.543Z,95.50
2022-11-16T19:26:23.724Z,95.50
2022-11-16T19:28:54.378Z,95.50
2022-11-16T19:31:24.690Z,95.50
2022-11-16T19:33:56.954Z,95.50
2022-11-16T19:36:26.161Z,95.50
2022-11-16T19:38:54.954Z,95.50
2022-11-16T19:41:27.486Z,95.50
2022-11-16T19:43:59.927Z,95.50
2022-11-16T19:46:29.359Z,95.50
2022-11-16T19:48:57.884Z,95.50
2022-11-16T19:51:27.875Z,95.50
2022-11-16T19:53:56.720Z,95.50
2022-11-16T19:56:25.613Z,95.50
2022-11-16T19:58:54.010Z,95.50
2022-11-16T20:01:27.501Z,95.50
2022-11-16T20:03:57.513Z,95.50
2022-11-16T20:06:28.988Z,95.50
2022-11-16T20:09:00.516Z,95.50
2022-11-16T20:11:30.279Z,95.50
2022-11-16T20:13:59.801Z,95.50
2022-11-16T20:16:38.123Z,95.50
2022-11-16T20:19:08.067Z,95.50
2022-11-16T20:21:38.403Z,95.50
2022-11-16T20:24:10.695Z,95.50
2022-11-16T20:26:43.760Z,95.50
2022-11-16T20:29:12.812Z,95.50
2022-11-16T20:31:42.944Z,95.50
2022-11-16T20:34:14.546Z,95.50
2022-11-16T20:36:46.415Z,95.50
2022-11-16T20:39:15.884Z,95.50
2022-11-16T20:41:44.906Z,95.50
2022-11-16T20:44:16.852Z,95.50
2022-11-16T20:46:46.815Z,95.50
2022-11-16T20:49:15.112Z,95.50
2022-11-16T20:51:43.405Z,95.50
2022-11-16T20:54:11.525Z,95.50
2022-11-16T20:56:39.657Z,95.50
2022-11-16T20:59:07.829Z,95.50
2022-11-16T21:01:36.713Z,95.50
2022-11-16T21:04:07.531Z,95.50
2022-11-16T21:06:35.945Z,95.50
2022-11-16T21:09:05.337Z,95.50
2022-11-16T21:11:54.796Z,95.50
2022-11-16T21:14:22.630Z,95.50
2022-11-16T21:16:50.955Z,95.50
2022-11-16T21:19:20.576Z,95.50
2022-11-16T21:21:48.618Z,95.50
2022-11-16T21:24:17.608Z,95.50
2022-11-16T21:26:45.759Z,95.50
2022-11-16T21:29:13.903Z,95.50
2022-11-16T21:31:41.898Z,95.50
2022-11-16T21:34:09.910Z,95.50
2022-11-16T21:36:39.394Z,95.50
2022-11-16T21:39:08.080Z,95.50
2022-11-16T21:41:36.152Z,95.50
2022-11-16T21:44:04.378Z,95.50
2022-11-16T21:46:32.566Z,95.50
2022-11-16T21:49:00.732Z,95.50
2022-11-16T21:51:29.168Z,95.50
2022-11-16T21:53:58.532Z,95.50
2022-11-16T21:56:27.270Z,95.50
2022-11-16T21:58:55.636Z,95.50
2022-11-16T22:01:24.590Z,95.50
2022-11-16T22:04:06.552Z,95.50
2022-11-16T22:06:52.000Z,95.50
2022-11-16T22:09:21.843Z,95.50
2022-11-16T22:11:49.838Z,95.50
2022-11-16T22:14:17.864Z,95.50
2022-11-16T22:16:45.891Z,95.50
2022-11-16T22:19:13.929Z,95.50
2022-11-16T22:21:41.949Z,95.50
2022-11-16T22:24:10.126Z,95.50
2022-11-16T22:26:41.096Z,95.50
2022-11-16T22:29:09.176Z,95.50
2022-11-16T22:31:37.222Z,95.50
2022-11-16T22:34:05.402Z,95.50
2022-11-16T22:36:33.430Z,95.50
2022-11-16T22:39:02.550Z,95.50
2022-11-16T22:41:30.771Z,95.50
2022-11-16T22:44:00.201Z,95.50
2022-11-16T22:46:28.229Z,95.50
2022-11-16T22:48:56.259Z,95.50
2022-11-16T22:51:26.028Z,95.50
2022-11-16T22:53:54.915Z,95.50
2022-11-16T22:56:23.659Z,95.50
2022-11-16T22:58:51.818Z,95.50
2022-11-16T23:01:21.793Z,95.50
2022-11-16T23:03:49.981Z,95.50
2022-11-16T23:06:18.423Z,95.50
2022-11-16T23:08:46.573Z,95.50
2022-11-16T23:11:34.083Z,95.50
2022-11-16T23:14:20.958Z,95.50
2022-11-16T23:16:50.490Z,95.50
2022-11-16T23:19:38.050Z,95.50
2022-11-16T23:22:23.863Z,95.50
2022-11-16T23:25:17.797Z,95.50
2022-11-16T23:27:51.528Z,95.50
2022-11-16T23:30:19.762Z,95.50
2022-11-16T23:32:49.578Z,95.50
2022-11-16T23:35:18.206Z,95.50
2022-11-16T23:37:56.908Z,95.50
2022-11-16T23:40:26.802Z,95.50
2022-11-16T23:43:13.135Z,95.50
2022-11-16T23:45:42.169Z,95.50
2022-11-16T23:48:13.013Z,95.50
2022-11-16T23:50:41.096Z,95.50
2022-11-16T23:53:10.513Z,95.50
2022-11-16T23:55:40.309Z,95.50
2022-11-16T23:58:12.963Z,95.50
